Terminal Aerodrome Forecast
Issued by NWS

Home | Current Version | Previous Version | Text Only | Print | Product List | Glossary On
Versions: 1 2 3 4 5 6 7 8 9 10 11 12 13 14 15 16 17 18 19 20 21 22 23 24 25 26 27 28 29
000
FTUS45 KPSR 251100
TAFPHX
TAF
KPHX 251134Z 2512/2612 VRB06KT P6SM SCT250
     FM252200 26008KT P6SM SCT080 SCT250 PROB30 2522/2602 P6SM TS
      BKN050CB BKN250
     FM260200 19015G25KT P6SM SCT050 BKN250 PROB30 2602/2606 P6SM TS
      BKN050CB BKN250
     FM260800 20010KT P6SM OVC250=

USA.gov is the U.S. government's official web portal to all federal, state and local government web resources and services.